Tonawanda, New York
Current Conditions -  °F | °C
As of 7:53 PM on Monday 24 Nov 2014 (Local Time) from KIAG Reporting Station
Few Clouds Few Clouds  
Wind Chill: 33°   Ceiling: Unl
Heat Index: 43°   Visibility: 10mi
Dew Point: 34°   Wind: 29mph
Humidity: 71%   Direction: 250°WSW
Pressure: 29.55"   Gusts: 48mph
Location:  43.02°N, 78.89°W
Report Text: KIAG 250053Z 25025G42KT 10SM FEW027 06/01 A2955 RMK AO2 PK WND 24043/0001 SLP010 T00610011
Loading
Personal Weather Stations






























Interactive Weather Map New forecast layout! Learn more

10-Day Weather Forecast

Advertisements
Track Severe Weather on mobile